createdAt,value
2022-08-21T00:00:17.802Z,63.36
2022-08-21T00:02:48.718Z,63.67
2022-08-21T00:05:16.445Z,64.25
2022-08-21T00:07:44.115Z,64.99
2022-08-21T00:10:11.623Z,65.46
2022-08-21T00:12:44.480Z,66.10
2022-08-21T00:15:13.348Z,65.73
2022-08-21T00:17:41.763Z,64.28
2022-08-21T00:20:10.483Z,64.03
2022-08-21T00:22:41.642Z,64.33
2022-08-21T00:25:09.375Z,64.83
2022-08-21T00:27:37.997Z,65.25
2022-08-21T00:30:07.129Z,65.72
2022-08-21T00:32:34.807Z,66.58
2022-08-21T00:35:02.102Z,66.30
2022-08-21T00:37:30.521Z,64.74
2022-08-21T00:39:59.169Z,64.14
2022-08-21T00:42:27.072Z,64.32
2022-08-21T00:44:54.615Z,64.91
2022-08-21T00:47:22.051Z,65.42
2022-08-21T00:49:49.343Z,65.99
2022-08-21T00:52:19.131Z,66.82
2022-08-21T00:54:46.664Z,66.47
2022-08-21T00:57:18.651Z,64.89
2022-08-21T00:59:46.724Z,64.49
2022-08-21T01:02:14.329Z,65.01
2022-08-21T01:04:42.360Z,65.61
2022-08-21T01:07:09.951Z,66.03
2022-08-21T01:09:37.688Z,66.50
2022-08-21T01:12:05.554Z,67.23
2022-08-21T01:14:33.198Z,67.00
2022-08-21T01:17:01.444Z,65.57
2022-08-21T01:19:28.890Z,65.08
2022-08-21T01:21:58.484Z,65.05
2022-08-21T01:24:26.117Z,65.35
2022-08-21T01:26:53.212Z,66.02
2022-08-21T01:29:40.889Z,66.49
2022-08-21T01:32:11.333Z,67.46
2022-08-21T01:34:40.997Z,66.75
2022-08-21T01:37:08.363Z,65.43
2022-08-21T01:39:36.847Z,65.10
2022-08-21T01:42:04.865Z,65.20
2022-08-21T01:44:32.396Z,65.82
2022-08-21T01:47:00.764Z,66.30
2022-08-21T01:49:28.900Z,67.05
2022-08-21T01:51:56.928Z,66.86
2022-08-21T01:54:24.749Z,65.58
2022-08-21T01:56:52.861Z,65.24
2022-08-21T01:59:20.593Z,65.47
2022-08-21T02:01:48.096Z,66.05
2022-08-21T02:04:15.176Z,66.61
2022-08-21T02:06:43.783Z,67.23
2022-08-21T02:09:11.494Z,66.99
2022-08-21T02:11:41.538Z,65.59
2022-08-21T02:14:10.252Z,64.98
2022-08-21T02:16:37.368Z,65.24
2022-08-21T02:19:04.670Z,65.90
2022-08-21T02:21:32.209Z,66.50
2022-08-21T02:23:59.736Z,67.26
2022-08-21T02:26:27.208Z,67.25
2022-08-21T02:28:54.490Z,65.88
2022-08-21T02:31:21.740Z,65.39
2022-08-21T02:33:48.992Z,65.59
2022-08-21T02:36:16.252Z,66.07
2022-08-21T02:38:44.060Z,66.58
2022-08-21T02:41:19.030Z,67.79
2022-08-21T02:43:46.404Z,67.48
2022-08-21T02:46:15.181Z,66.02
2022-08-21T02:48:42.712Z,65.50
2022-08-21T02:51:15.142Z,65.78
2022-08-21T02:53:42.783Z,66.35
2022-08-21T02:56:11.059Z,66.99
2022-08-21T02:58:41.420Z,67.67
2022-08-21T03:01:10.582Z,67.43
2022-08-21T03:03:39.567Z,65.95
2022-08-21T03:06:09.815Z,65.50
2022-08-21T03:08:37.443Z,65.75
2022-08-21T03:11:05.280Z,66.31
2022-08-21T03:13:35.613Z,67.03
2022-08-21T03:16:04.188Z,67.83
2022-08-21T03:18:37.503Z,67.65
2022-08-21T03:21:07.134Z,66.09
2022-08-21T03:23:34.798Z,65.88
2022-08-21T03:26:03.103Z,66.12
2022-08-21T03:28:30.560Z,66.70
2022-08-21T03:30:58.027Z,67.39
2022-08-21T03:33:25.489Z,68.28
2022-08-21T03:36:06.734Z,68.00
2022-08-21T03:38:37.906Z,66.10
2022-08-21T03:41:06.201Z,65.66
2022-08-21T03:43:36.766Z,65.95
2022-08-21T03:46:04.502Z,66.53
2022-08-21T03:48:32.638Z,67.25
2022-08-21T03:50:59.938Z,68.35
2022-08-21T03:53:27.217Z,67.92
2022-08-21T03:55:54.864Z,66.25
2022-08-21T03:58:24.010Z,65.76
2022-08-21T04:00:53.170Z,65.98
2022-08-21T04:03:20.956Z,66.78
2022-08-21T04:05:50.479Z,67.30
2022-08-21T04:08:21.107Z,68.11
2022-08-21T04:10:51.255Z,67.83
2022-08-21T04:13:21.359Z,66.16
2022-08-21T04:15:49.257Z,65.80
2022-08-21T04:18:16.580Z,66.03
2022-08-21T04:20:45.459Z,66.58
2022-08-21T04:23:24.560Z,67.06
2022-08-21T04:25:53.450Z,67.89
2022-08-21T04:28:23.305Z,67.17
2022-08-21T04:30:53.112Z,65.78
2022-08-21T04:33:21.627Z,64.83
2022-08-21T04:35:50.071Z,64.71
2022-08-21T04:38:17.847Z,65.09
2022-08-21T04:40:45.518Z,65.52
2022-08-21T04:43:12.959Z,65.86
2022-08-21T04:45:45.909Z,66.44
2022-08-21T04:48:14.498Z,65.67
2022-08-21T04:51:09.030Z,63.95
2022-08-21T04:53:41.156Z,62.76
2022-08-21T04:56:17.872Z,63.24
2022-08-21T04:58:45.283Z,63.56
2022-08-21T05:01:16.307Z,63.95
2022-08-21T05:03:43.858Z,64.53
2022-08-21T05:06:12.094Z,64.67
2022-08-21T05:08:40.679Z,64.18
2022-08-21T05:11:08.023Z,62.28
2022-08-21T05:13:35.538Z,61.48
2022-08-21T05:16:03.072Z,61.54
2022-08-21T05:18:33.746Z,61.82
2022-08-21T05:21:01.132Z,62.09
2022-08-21T05:23:28.515Z,62.23
2022-08-21T05:25:56.742Z,62.63
2022-08-21T05:28:24.673Z,62.37
2022-08-21T05:30:54.470Z,63.80
2022-08-21T05:33:21.801Z,62.48
2022-08-21T05:35:52.586Z,59.77
2022-08-21T05:38:20.434Z,58.96
2022-08-21T05:40:47.943Z,58.80
2022-08-21T05:43:15.654Z,58.22
2022-08-21T05:45:44.310Z,58.85
2022-08-21T05:48:20.229Z,59.61
2022-08-21T05:50:49.491Z,60.41
2022-08-21T05:53:17.285Z,59.66
2022-08-21T05:55:46.719Z,59.79
2022-08-21T05:58:15.965Z,60.60
2022-08-21T06:00:44.038Z,60.04
2022-08-21T06:03:17.986Z,59.72
2022-08-21T06:05:46.644Z,60.59
2022-08-21T06:08:15.420Z,59.78
2022-08-21T06:10:42.964Z,59.52
2022-08-21T06:13:10.607Z,60.46
2022-08-21T06:15:39.231Z,59.17
2022-08-21T06:18:07.064Z,59.23
2022-08-21T06:20:35.016Z,58.19
2022-08-21T06:23:02.484Z,58.36
2022-08-21T06:25:30.235Z,58.45
2022-08-21T06:28:05.966Z,59.57
2022-08-21T06:30:33.430Z,56.78
2022-08-21T06:33:01.187Z,57.89
2022-08-21T06:35:30.184Z,57.89
2022-08-21T06:38:05.204Z,57.54
2022-08-21T06:40:34.835Z,57.43
2022-08-21T06:43:15.106Z,56.91
2022-08-21T06:45:52.048Z,55.49
2022-08-21T06:48:19.730Z,54.87
2022-08-21T06:50:47.754Z,55.48
2022-08-21T06:53:16.599Z,51.56
2022-08-21T06:55:43.851Z,51.99
2022-08-21T06:58:11.112Z,50.99
2022-08-21T07:00:42.972Z,52.25
2022-08-21T07:03:28.419Z,51.53
2022-08-21T07:05:56.312Z,51.41
2022-08-21T07:08:27.040Z,50.75
2022-08-21T07:10:55.224Z,48.20
2022-08-21T07:13:22.868Z,50.37
2022-08-21T07:15:50.245Z,46.92
2022-08-21T07:18:17.720Z,44.70
2022-08-21T07:22:31.181Z,44.88
2022-08-21T07:24:59.720Z,45.65
2022-08-21T07:27:27.053Z,44.25
2022-08-21T07:29:54.722Z,46.38
2022-08-21T07:32:22.665Z,45.14
2022-08-21T07:34:50.295Z,43.22
2022-08-21T07:37:17.956Z,42.29
2022-08-21T07:39:45.591Z,40.84
2022-08-21T07:42:12.841Z,41.25
2022-08-21T07:44:40.116Z,42.37
2022-08-21T07:47:12.650Z,41.46
2022-08-21T07:49:40.599Z,42.37
2022-08-21T07:52:08.270Z,37.69
2022-08-21T07:54:36.165Z,39.25
2022-08-21T07:57:03.616Z,38.26
2022-08-21T07:59:30.999Z,38.70
2022-08-21T08:01:58.552Z,38.15
2022-08-21T08:04:26.670Z,38.70
2022-08-21T08:06:54.250Z,39.66
2022-08-21T08:09:22.175Z,40.20
2022-08-21T08:11:49.704Z,39.74
2022-08-21T08:14:16.955Z,37.80
2022-08-21T08:16:44.183Z,37.48
2022-08-21T08:19:11.545Z,38.94
2022-08-21T08:21:40.267Z,38.67
2022-08-21T08:24:19.443Z,38.94
2022-08-21T08:27:34.763Z,39.47
2022-08-21T08:30:03.866Z,39.53
2022-08-21T08:32:31.084Z,37.91
2022-08-21T08:34:58.338Z,38.32
2022-08-21T08:37:25.472Z,39.41
2022-08-21T08:39:58.296Z,40.17
2022-08-21T08:42:35.366Z,39.13
2022-08-21T08:45:23.129Z,42.59
2022-08-21T08:47:59.154Z,42.36
2022-08-21T08:50:33.175Z,41.00
2022-08-21T08:53:06.436Z,41.44
2022-08-21T08:55:37.383Z,42.34
2022-08-21T08:58:04.770Z,40.62
2022-08-21T09:00:32.626Z,40.37
2022-08-21T09:03:01.904Z,40.36
2022-08-21T09:05:31.948Z,42.26
2022-08-21T09:08:36.060Z,42.87
2022-08-21T09:11:14.453Z,43.36
2022-08-21T09:14:04.564Z,43.36
2022-08-21T09:16:37.635Z,45.13
2022-08-21T09:19:28.171Z,44.50
2022-08-21T09:22:25.725Z,43.96
2022-08-21T09:24:58.663Z,43.82
2022-08-21T09:27:26.782Z,44.41
2022-08-21T09:29:55.676Z,43.64
2022-08-21T09:32:37.570Z,43.81
2022-08-21T09:35:05.402Z,42.55
2022-08-21T09:37:35.697Z,44.97
2022-08-21T09:40:04.280Z,41.57
2022-08-21T09:42:35.079Z,40.97
2022-08-21T09:45:12.743Z,40.44
2022-08-21T09:47:41.808Z,41.67
2022-08-21T09:50:20.684Z,42.81
2022-08-21T09:52:53.014Z,40.45
2022-08-21T09:56:00.279Z,38.76
2022-08-21T09:58:35.417Z,39.58
2022-08-21T10:01:04.172Z,41.45
2022-08-21T10:03:31.477Z,41.93
2022-08-21T10:06:01.211Z,42.97
2022-08-21T10:08:30.639Z,41.22
2022-08-21T10:11:18.239Z,39.34
2022-08-21T10:14:06.519Z,41.30
2022-08-21T10:16:52.973Z,42.51
2022-08-21T10:19:20.076Z,41.21
2022-08-21T10:22:26.817Z,41.31
2022-08-21T10:25:03.734Z,40.10
2022-08-21T10:27:52.793Z,42.06
2022-08-21T10:30:47.028Z,40.69
2022-08-21T10:33:32.844Z,42.21
2022-08-21T10:36:23.048Z,39.43
2022-08-21T10:42:08.931Z,41.36
2022-08-21T10:44:45.863Z,41.13
2022-08-21T10:47:37.667Z,39.08
2022-08-21T10:50:09.307Z,40.29
2022-08-21T10:52:55.382Z,39.31
2022-08-21T10:55:25.018Z,38.63
2022-08-21T10:58:13.640Z,40.40
2022-08-21T11:00:49.212Z,41.38
2022-08-21T11:04:01.424Z,41.71
2022-08-21T11:06:32.213Z,41.37
2022-08-21T11:09:05.418Z,40.85
2022-08-21T11:11:37.890Z,39.89
2022-08-21T11:14:22.852Z,40.81
2022-08-21T11:17:01.823Z,38.95
2022-08-21T11:19:41.420Z,39.28
2022-08-21T11:22:17.121Z,40.81
2022-08-21T11:25:08.332Z,40.19
2022-08-21T11:27:46.383Z,40.23
2022-08-21T11:30:14.329Z,39.35
2022-08-21T11:33:25.148Z,39.85
2022-08-21T11:35:55.331Z,39.80
2022-08-21T11:38:25.273Z,41.06
2022-08-21T11:40:55.542Z,40.09
2022-08-21T11:43:37.280Z,40.04
2022-08-21T11:46:29.116Z,40.18
2022-08-21T11:49:15.031Z,43.56
2022-08-21T11:52:09.903Z,39.77
2022-08-21T11:54:50.762Z,40.18
2022-08-21T11:57:26.247Z,40.13
2022-08-21T12:00:00.483Z,40.60
2022-08-21T12:02:40.777Z,39.35
2022-08-21T12:05:10.278Z,38.96
2022-08-21T12:07:43.662Z,39.82
2022-08-21T12:10:22.097Z,41.65
2022-08-21T12:12:50.319Z,42.35
2022-08-21T12:15:23.858Z,40.64
2022-08-21T12:17:54.179Z,38.33
2022-08-21T12:20:21.967Z,38.47
2022-08-21T12:22:55.104Z,38.74
2022-08-21T12:25:22.608Z,39.16
2022-08-21T12:27:54.828Z,40.06
2022-08-21T12:30:28.353Z,38.67
2022-08-21T12:33:04.495Z,39.40
2022-08-21T12:35:38.707Z,41.10
2022-08-21T12:38:11.096Z,39.44
2022-08-21T12:40:42.074Z,39.34
2022-08-21T12:43:17.435Z,39.91
2022-08-21T12:45:46.085Z,41.36
2022-08-21T12:48:52.060Z,41.63
2022-08-21T12:51:23.887Z,40.55
2022-08-21T12:53:51.348Z,39.93
2022-08-21T12:56:21.293Z,40.67
2022-08-21T12:58:52.194Z,39.39
2022-08-21T13:01:41.441Z,39.62
2022-08-21T13:04:12.176Z,39.79
2022-08-21T13:06:43.057Z,39.48
2022-08-21T13:09:13.167Z,40.67
2022-08-21T13:11:42.075Z,40.79
2022-08-21T13:14:30.352Z,41.34
2022-08-21T13:16:58.954Z,41.13
2022-08-21T13:19:26.730Z,40.92
2022-08-21T13:21:53.981Z,41.93
2022-08-21T13:24:41.836Z,42.35
2022-08-21T13:27:23.347Z,41.21
2022-08-21T13:30:02.239Z,41.71
2022-08-21T13:32:29.609Z,40.20
2022-08-21T13:34:56.959Z,41.54
2022-08-21T13:37:24.104Z,40.82
2022-08-21T13:39:53.135Z,40.38
2022-08-21T13:42:20.390Z,40.96
2022-08-21T13:44:48.397Z,42.84
2022-08-21T13:47:16.929Z,41.67
2022-08-21T13:49:46.402Z,42.61
2022-08-21T13:52:16.698Z,43.57
2022-08-21T13:54:45.725Z,41.47
2022-08-21T13:57:30.035Z,42.04
2022-08-21T14:00:16.083Z,42.64
2022-08-21T14:02:45.746Z,40.63
2022-08-21T14:05:33.423Z,41.21
2022-08-21T14:08:20.478Z,40.47
2022-08-21T14:10:53.725Z,40.44
2022-08-21T14:13:29.306Z,39.82
2022-08-21T14:15:59.041Z,40.00
2022-08-21T14:18:27.109Z,41.14
2022-08-21T14:21:08.085Z,40.42
2022-08-21T14:23:35.615Z,41.08
2022-08-21T14:26:04.476Z,41.04
2022-08-21T14:28:39.723Z,41.31
2022-08-21T14:31:19.070Z,40.92
2022-08-21T14:33:47.310Z,41.23
2022-08-21T14:36:14.845Z,40.64
2022-08-21T14:38:42.077Z,41.22
2022-08-21T14:41:20.748Z,41.40
2022-08-21T14:43:47.855Z,41.24
2022-08-21T14:46:29.703Z,40.72
2022-08-21T14:48:56.940Z,39.72
2022-08-21T14:51:23.963Z,40.08
2022-08-21T14:53:51.298Z,41.13
2022-08-21T14:56:19.289Z,41.69
2022-08-21T14:58:49.703Z,41.35
2022-08-21T15:01:18.241Z,41.86
2022-08-21T15:03:47.038Z,42.24
2022-08-21T15:06:14.181Z,41.78
2022-08-21T15:08:41.309Z,41.45
2022-08-21T15:11:12.400Z,41.16
2022-08-21T15:13:40.040Z,41.74
2022-08-21T15:16:09.689Z,40.80
2022-08-21T15:18:37.313Z,41.30
2022-08-21T15:21:04.526Z,41.48
2022-08-21T15:23:31.680Z,40.39
2022-08-21T15:25:59.730Z,40.94
2022-08-21T15:28:27.594Z,41.14
2022-08-21T15:31:00.875Z,41.46
2022-08-21T15:33:28.709Z,41.21
2022-08-21T15:35:55.891Z,40.69
2022-08-21T15:38:23.155Z,41.04
2022-08-21T15:40:52.014Z,41.57
2022-08-21T15:43:32.610Z,41.43
2022-08-21T15:46:00.488Z,42.16
2022-08-21T15:48:28.666Z,42.67
2022-08-21T15:50:55.814Z,43.59
2022-08-21T15:53:22.943Z,43.75
2022-08-21T15:55:51.551Z,44.24
2022-08-21T15:58:20.964Z,44.11
2022-08-21T16:00:48.208Z,44.48
2022-08-21T16:03:17.858Z,44.37
2022-08-21T16:05:46.016Z,44.69
2022-08-21T16:08:13.473Z,45.14
2022-08-21T16:10:42.127Z,45.63
2022-08-21T16:13:18.143Z,45.85
2022-08-21T16:15:46.121Z,46.19
2022-08-21T16:18:15.171Z,46.50
2022-08-21T16:20:42.755Z,46.47
2022-08-21T16:23:10.036Z,46.71
2022-08-21T16:25:38.328Z,46.93
2022-08-21T16:28:08.752Z,47.64
2022-08-21T16:30:37.919Z,47.65
2022-08-21T16:33:05.855Z,47.80
2022-08-21T16:35:33.553Z,47.96
2022-08-21T16:38:01.093Z,47.91
2022-08-21T16:40:28.793Z,48.39
2022-08-21T16:42:56.488Z,48.32
2022-08-21T16:45:23.756Z,48.28
2022-08-21T16:47:51.471Z,48.98
2022-08-21T16:50:22.472Z,49.29
2022-08-21T16:52:50.198Z,49.38
2022-08-21T16:55:17.772Z,49.32
2022-08-21T16:57:44.991Z,49.24
2022-08-21T17:00:13.731Z,49.24
2022-08-21T17:02:44.314Z,49.32
2022-08-21T17:05:14.199Z,49.29
2022-08-21T17:07:42.401Z,49.51
2022-08-21T17:10:13.197Z,49.59
2022-08-21T17:12:41.109Z,49.96
2022-08-21T17:15:21.165Z,50.08
2022-08-21T17:17:48.996Z,50.07
2022-08-21T17:20:16.544Z,50.19
2022-08-21T17:22:44.943Z,50.54
2022-08-21T17:25:12.194Z,50.61
2022-08-21T17:27:40.459Z,50.61
2022-08-21T17:30:08.838Z,50.75
2022-08-21T17:32:37.031Z,50.80
2022-08-21T17:35:04.706Z,50.93
2022-08-21T17:37:34.070Z,51.00
2022-08-21T17:40:01.776Z,51.38
2022-08-21T17:42:30.244Z,51.28
2022-08-21T17:44:57.776Z,51.58
2022-08-21T17:47:25.351Z,51.46
2022-08-21T17:49:52.566Z,51.88
2022-08-21T17:52:19.867Z,52.07
2022-08-21T17:54:47.492Z,52.62
2022-08-21T17:57:18.868Z,52.48
2022-08-21T17:59:46.149Z,52.69
2022-08-21T18:02:19.755Z,52.50
2022-08-21T18:04:50.459Z,52.83
2022-08-21T18:07:31.989Z,53.07
2022-08-21T18:10:06.029Z,53.88
2022-08-21T18:12:34.868Z,53.76
2022-08-21T18:15:02.368Z,54.02
2022-08-21T18:17:37.249Z,54.39
2022-08-21T18:20:06.379Z,55.07
2022-08-21T18:22:36.746Z,54.09
2022-08-21T18:25:05.347Z,53.70
2022-08-21T18:27:32.691Z,53.81
2022-08-21T18:30:00.625Z,54.85
2022-08-21T18:32:31.284Z,54.61
2022-08-21T18:35:00.912Z,55.07
2022-08-21T18:37:28.475Z,55.67
2022-08-21T18:39:56.001Z,55.37
2022-08-21T18:42:28.416Z,56.44
2022-08-21T18:44:59.663Z,56.79
2022-08-21T18:47:29.015Z,57.53
2022-08-21T18:49:56.560Z,57.94
2022-08-21T18:52:28.279Z,58.30
2022-08-21T18:54:56.142Z,58.39
2022-08-21T18:57:25.732Z,58.43
2022-08-21T18:59:52.876Z,57.84
2022-08-21T19:02:20.315Z,58.87
2022-08-21T19:04:48.080Z,58.16
2022-08-21T19:07:16.086Z,58.59
2022-08-21T19:09:56.902Z,58.25
2022-08-21T19:12:30.008Z,58.09
2022-08-21T19:14:59.736Z,58.11
2022-08-21T19:17:27.597Z,57.88
2022-08-21T19:19:56.711Z,58.61
2022-08-21T19:22:24.462Z,59.42
2022-08-21T19:24:52.028Z,58.22
2022-08-21T19:27:19.792Z,58.64
2022-08-21T19:29:53.301Z,58.66
2022-08-21T19:32:21.222Z,59.57
2022-08-21T19:34:51.185Z,58.07
2022-08-21T19:37:23.093Z,57.88
2022-08-21T19:39:50.765Z,57.41
2022-08-21T19:42:21.070Z,58.31
2022-08-21T19:44:50.921Z,58.64
2022-08-21T19:47:22.287Z,59.68
2022-08-21T19:49:57.917Z,59.53
2022-08-21T19:52:25.237Z,59.72
2022-08-21T19:54:52.877Z,60.46
2022-08-21T19:57:20.146Z,61.05
2022-08-21T19:59:48.549Z,60.94
2022-08-21T20:02:19.787Z,60.81
2022-08-21T20:04:53.596Z,59.67
2022-08-21T20:07:26.627Z,58.91
2022-08-21T20:09:55.600Z,59.70
2022-08-21T20:12:24.453Z,60.11
2022-08-21T20:14:55.873Z,60.61
2022-08-21T20:17:23.083Z,61.23
2022-08-21T20:19:55.141Z,61.79
2022-08-21T20:22:26.378Z,62.36
2022-08-21T20:24:53.663Z,62.16
2022-08-21T20:27:24.217Z,60.81
2022-08-21T20:29:51.625Z,60.40
2022-08-21T20:32:18.911Z,60.56
2022-08-21T20:34:46.041Z,61.08
2022-08-21T20:37:22.116Z,61.74
2022-08-21T20:40:12.168Z,62.28
2022-08-21T20:42:41.108Z,63.21
2022-08-21T20:45:13.160Z,63.20
2022-08-21T20:47:42.997Z,62.52
2022-08-21T20:53:05.009Z,62.84
2022-08-21T20:55:32.810Z,63.67
2022-08-21T20:58:06.536Z,63.73
2022-08-21T21:00:39.142Z,63.98
2022-08-21T21:03:15.437Z,62.21
2022-08-21T21:05:53.022Z,61.90
2022-08-21T21:08:25.255Z,62.39
2022-08-21T21:10:54.797Z,62.42
2022-08-21T21:13:29.787Z,63.32
2022-08-21T21:16:14.881Z,63.90
2022-08-21T21:19:03.956Z,64.71
2022-08-21T21:21:53.708Z,63.58
2022-08-21T21:24:27.699Z,62.19
2022-08-21T21:26:58.255Z,61.64
2022-08-21T21:29:46.062Z,62.42
2022-08-21T21:32:17.978Z,62.93
2022-08-21T21:34:45.967Z,63.49
2022-08-21T21:37:15.011Z,63.27
2022-08-21T21:40:13.987Z,64.73
2022-08-21T21:42:44.343Z,64.12
2022-08-21T21:45:26.976Z,62.83
2022-08-21T21:48:03.555Z,62.65
2022-08-21T21:50:43.648Z,62.71
2022-08-21T21:53:33.602Z,63.64
2022-08-21T21:56:00.635Z,64.05
2022-08-21T21:58:45.564Z,64.71
2022-08-21T22:01:37.948Z,64.96
2022-08-21T22:04:24.751Z,64.48
2022-08-21T22:07:07.388Z,63.28
2022-08-21T22:09:43.871Z,63.41
2022-08-21T22:12:55.718Z,63.95
2022-08-21T22:15:26.485Z,64.58
2022-08-21T22:18:10.515Z,65.39
2022-08-21T22:20:57.503Z,65.93
2022-08-21T22:23:29.486Z,66.69
2022-08-21T22:26:03.186Z,66.07
2022-08-21T22:28:30.580Z,64.45
2022-08-21T22:31:21.025Z,64.01
2022-08-21T22:34:00.892Z,63.76
2022-08-21T22:36:34.705Z,65.03
2022-08-21T22:39:04.714Z,64.41
2022-08-21T22:41:32.216Z,64.66
2022-08-21T22:44:06.854Z,65.67
2022-08-21T22:46:45.889Z,63.86
2022-08-21T22:49:25.118Z,63.54
2022-08-21T22:51:56.480Z,63.91
2022-08-21T22:54:39.307Z,64.42
2022-08-21T22:57:23.661Z,64.64
2022-08-21T23:00:16.723Z,64.74
2022-08-21T23:02:49.345Z,66.78
2022-08-21T23:08:38.651Z,64.39
2022-08-21T23:11:18.009Z,64.23
2022-08-21T23:13:47.731Z,64.67
2022-08-21T23:16:33.280Z,65.11
2022-08-21T23:19:39.460Z,65.69
2022-08-21T23:22:41.843Z,63.40
2022-08-21T23:25:43.066Z,64.29
2022-08-21T23:28:16.978Z,63.50
2022-08-21T23:30:58.980Z,64.03
2022-08-21T23:33:39.298Z,64.59
2022-08-21T23:36:57.312Z,64.68
2022-08-21T23:39:46.641Z,65.94
2022-08-21T23:42:37.422Z,66.59
2022-08-21T23:45:18.191Z,64.94
2022-08-21T23:48:02.068Z,63.44
2022-08-21T23:50:59.290Z,64.24
2022-08-21T23:53:52.559Z,63.61
2022-08-21T23:56:32.034Z,64.46
2022-08-21T23:59:14.647Z,65.78
